Температура и влажность:

T на улице: Влажность на улице:   T на кухне: T в комнате: Влажность в комнате:  T обогревателя:  T воды кухня:

24.2 C*

2018-05-25 15:20:02

30.7%

2018-05-25 15:20:02

26.60 C*

2018-05-25 15:20:02

24.4 C*

2018-05-25 15:20:02

33.1 %

2018-05-25 15:20:02

24.30 C*

2018-05-25 15:20:04

24.00 C*

2018-05-25 15:20:09

Движение! Фото с камеры время: 14:52 дата: 25 05 2018

Данные электросчетчика КИРИЛЛ
[1] ДАТА: 2018-05-24 МОЩНОСТЬ: 1404.342 [кВт] СУММА: 7021.71 [руб]
[2] ДАТА: 2018-05-23 МОЩНОСТЬ: 1403.457 [кВт] СУММА: 7017.285 [руб]
[3] ДАТА: 2018-05-22 МОЩНОСТЬ: 1403.004 [кВт] СУММА: 7015.02 [руб]
[4] ДАТА: 2018-05-21 МОЩНОСТЬ: 1402.51 [кВт] СУММА: 7012.55 [руб]
[5] ДАТА: 2018-05-20 МОЩНОСТЬ: 1399.122 [кВт] СУММА: 6995.61 [руб]
[6] ДАТА: 2018-05-19 МОЩНОСТЬ: 1383.415 [кВт] СУММА: 6917.075 [руб]
[7] ДАТА: 2018-05-18 МОЩНОСТЬ: 1381.311 [кВт] СУММА: 6906.555 [руб]
[8] ДАТА: 2018-05-17 МОЩНОСТЬ: 1381.169 [кВт] СУММА: 6905.845 [руб]
[9] ДАТА: 2018-05-16 МОЩНОСТЬ: 1381.017 [кВт] СУММА: 6905.085 [руб]
[10] ДАТА: 2018-05-15 МОЩНОСТЬ: 1380.872 [кВт] СУММА: 6904.36 [руб]
[11] ДАТА: 2018-05-14 МОЩНОСТЬ: 1380.732 [кВт] СУММА: 6903.66 [руб]
[12] ДАТА: 2018-05-13 МОЩНОСТЬ: 1375.315 [кВт] СУММА: 6876.575 [руб]
[13] ДАТА: 2018-05-12 МОЩНОСТЬ: 1353.076 [кВт] СУММА: 6765.38 [руб]
[14] ДАТА: 2018-05-11 МОЩНОСТЬ: 1344.82 [кВт] СУММА: 6724.1 [руб]
[15] ДАТА: 2018-05-10 МОЩНОСТЬ: 1344.682 [кВт] СУММА: 6723.41 [руб]
[16] ДАТА: 2018-05-09 МОЩНОСТЬ: 1344.543 [кВт] СУММА: 6722.715 [руб]
[17] ДАТА: 2018-05-08 МОЩНОСТЬ: 1344.403 [кВт] СУММА: 6722.015 [руб]
[18] ДАТА: 2018-05-07 МОЩНОСТЬ: 1344.263 [кВт] СУММА: 6721.315 [руб]
[19] ДАТА: 2018-05-06 МОЩНОСТЬ: 1340.39 [кВт] СУММА: 6701.95 [руб]
[20] ДАТА: 2018-05-05 МОЩНОСТЬ: 1333.613 [кВт] СУММА: 6668.065 [руб]
[21] ДАТА: 2018-05-04 МОЩНОСТЬ: 1327.198 [кВт] СУММА: 6635.99 [руб]
[22] ДАТА: 2018-05-03 МОЩНОСТЬ: 1327.058 [кВт] СУММА: 6635.29 [руб]
[23] ДАТА: 2018-05-02 МОЩНОСТЬ: 1326.917 [кВт] СУММА: 6634.585 [руб]
[24] ДАТА: 2018-05-01 МОЩНОСТЬ: 1326.777 [кВт] СУММА: 6633.885 [руб]
[25] ДАТА: 2018-04-30 МОЩНОСТЬ: 1319.343 [кВт] СУММА: 6596.715 [руб]
[26] ДАТА: 2018-04-29 МОЩНОСТЬ: 1298.289 [кВт] СУММА: 6491.445 [руб]
[27] ДАТА: 2018-04-28 МОЩНОСТЬ: 1272.381 [кВт] СУММА: 6361.905 [руб]
[28] ДАТА: 2018-04-27 МОЩНОСТЬ: 1272.243 [кВт] СУММА: 6361.215 [руб]
[29] ДАТА: 2018-04-26 МОЩНОСТЬ: 1272.1 [кВт] СУММА: 6360.5 [руб]
[30] ДАТА: 2018-04-25 МОЩНОСТЬ: 1271.959 [кВт] СУММА: 6359.795 [руб]
[31] ДАТА: 2018-04-24 МОЩНОСТЬ: 1271.819 [кВт] СУММА: 6359.095 [руб]
[32] ДАТА: 2018-04-23 МОЩНОСТЬ: 1271.681 [кВт] СУММА: 6358.405 [руб]
[33] ДАТА: 2018-04-22 МОЩНОСТЬ: 1271.541 [кВт] СУММА: 6357.705 [руб]
[34] ДАТА: 2018-04-21 МОЩНОСТЬ: 1271.399 [кВт] СУММА: 6356.995 [руб]
[35] ДАТА: 2018-04-20 МОЩНОСТЬ: 1271.261 [кВт] СУММА: 6356.305 [руб]
[36] ДАТА: 2018-04-19 МОЩНОСТЬ: 1271.121 [кВт] СУММА: 6355.605 [руб]
[37] ДАТА: 2018-04-18 МОЩНОСТЬ: 1270.975 [кВт] СУММА: 6354.875 [руб]
[38] ДАТА: 2018-04-17 МОЩНОСТЬ: 1270.833 [кВт] СУММА: 6354.165 [руб]
[39] ДАТА: 2018-04-16 МОЩНОСТЬ: 1270.694 [кВт] СУММА: 6353.47 [руб]
[40] ДАТА: 2018-04-15 МОЩНОСТЬ: 1262.221 [кВт] СУММА: 6311.105 [руб]
[41] ДАТА: 2018-04-14 МОЩНОСТЬ: 1224.011 [кВт] СУММА: 6120.055 [руб]
[42] ДАТА: 2018-04-13 МОЩНОСТЬ: 1203.871 [кВт] СУММА: 6019.355 [руб]
[43] ДАТА: 2018-04-12 МОЩНОСТЬ: 1203.734 [кВт] СУММА: 6018.67 [руб]
[44] ДАТА: 2018-04-11 МОЩНОСТЬ: 1203.596 [кВт] СУММА: 6017.98 [руб]
[45] ДАТА: 2018-04-10 МОЩНОСТЬ: 1203.458 [кВт] СУММА: 6017.29 [руб]
[46] ДАТА: 2018-04-09 МОЩНОСТЬ: 1203.321 [кВт] СУММА: 6016.605 [руб]
[47] ДАТА: 2018-04-08 МОЩНОСТЬ: 1188.273 [кВт] СУММА: 5941.365 [руб]
[48] ДАТА: 2018-04-07 МОЩНОСТЬ: 1148.428 [кВт] СУММА: 5742.14 [руб]
[49] ДАТА: 2018-04-06 МОЩНОСТЬ: 1148.292 [кВт] СУММА: 5741.46 [руб]
[50] ДАТА: 2018-04-05 МОЩНОСТЬ: 1148.158 [кВт] СУММА: 5740.79 [руб]
[51] ДАТА: 2018-04-04 МОЩНОСТЬ: 1148.022 [кВт] СУММА: 5740.11 [руб]
[52] ДАТА: 2018-04-03 МОЩНОСТЬ: 1147.886 [кВт] СУММА: 5739.43 [руб]
[53] ДАТА: 2018-04-02 МОЩНОСТЬ: 1147.749 [кВт] СУММА: 5738.745 [руб]
[54] ДАТА: 2018-04-01 МОЩНОСТЬ: 1147.612 [кВт] СУММА: 5738.06 [руб]
[55] ДАТА: 2018-03-31 МОЩНОСТЬ: 1147.478 [кВт] СУММА: 5737.39 [руб]
[56] ДАТА: 2018-03-30 МОЩНОСТЬ: 1147.343 [кВт] СУММА: 5736.715 [руб]
[57] ДАТА: 2018-03-29 МОЩНОСТЬ: 1147.21 [кВт] СУММА: 5736.05 [руб]
[58] ДАТА: 2018-03-28 МОЩНОСТЬ: 1147.074 [кВт] СУММА: 5735.37 [руб]
[59] ДАТА: 2018-03-27 МОЩНОСТЬ: 1146.937 [кВт] СУММА: 5734.685 [руб]
[60] ДАТА: 2018-03-26 МОЩНОСТЬ: 1146.8 [кВт] СУММА: 5734 [руб]
[61] ДАТА: 2018-03-25 МОЩНОСТЬ: 1146.664 [кВт] СУММА: 5733.32 [руб]
[62] ДАТА: 2018-03-24 МОЩНОСТЬ: 1146.528 [кВт] СУММА: 5732.64 [руб]
[63] ДАТА: 2018-03-23 МОЩНОСТЬ: 1146.392 [кВт] СУММА: 5731.96 [руб]
[64] ДАТА: 2018-03-22 МОЩНОСТЬ: 1146.255 [кВт] СУММА: 5731.275 [руб]
[65] ДАТА: 2018-03-21 МОЩНОСТЬ: 1146.116 [кВт] СУММА: 5730.58 [руб]
[66] ДАТА: 2018-03-20 МОЩНОСТЬ: 1145.979 [кВт] СУММА: 5729.895 [руб]
[67] ДАТА: 2018-03-19 МОЩНОСТЬ: 1145.842 [кВт] СУММА: 5729.21 [руб]
[68] ДАТА: 2018-03-18 МОЩНОСТЬ: 1145.706 [кВт] СУММА: 5728.53 [руб]
[69] ДАТА: 2018-03-17 МОЩНОСТЬ: 1145.568 [кВт] СУММА: 5727.84 [руб]
[70] ДАТА: 2018-03-16 МОЩНОСТЬ: 1145.431 [кВт] СУММА: 5727.155 [руб]
[71] ДАТА: 2018-03-15 МОЩНОСТЬ: 1145.293 [кВт] СУММА: 5726.465 [руб]
[72] ДАТА: 2018-03-14 МОЩНОСТЬ: 1145.155 [кВт] СУММА: 5725.775 [руб]
[73] ДАТА: 2018-03-13 МОЩНОСТЬ: 1145.016 [кВт] СУММА: 5725.08 [руб]
[74] ДАТА: 2018-03-12 МОЩНОСТЬ: 1144.876 [кВт] СУММА: 5724.38 [руб]
[75] ДАТА: 2018-03-11 МОЩНОСТЬ: 1144.737 [кВт] СУММА: 5723.685 [руб]
[76] ДАТА: 2018-03-10 МОЩНОСТЬ: 1144.599 [кВт] СУММА: 5722.995 [руб]
[77] ДАТА: 2018-03-09 МОЩНОСТЬ: 1144.462 [кВт] СУММА: 5722.31 [руб]
[78] ДАТА: 2018-03-08 МОЩНОСТЬ: 1144.324 [кВт] СУММА: 5721.62 [руб]
[79] ДАТА: 2018-03-07 МОЩНОСТЬ: 1144.186 [кВт] СУММА: 5720.93 [руб]
[80] ДАТА: 2018-03-06 МОЩНОСТЬ: 1144.048 [кВт] СУММА: 5720.24 [руб]
[81] ДАТА: 2018-03-05 МОЩНОСТЬ: 1143.911 [кВт] СУММА: 5719.555 [руб]
[82] ДАТА: 2018-03-04 МОЩНОСТЬ: 1143.772 [кВт] СУММА: 5718.86 [руб]
[83] ДАТА: 2018-03-03 МОЩНОСТЬ: 1119.899 [кВт] СУММА: 5599.495 [руб]
[84] ДАТА: 2018-03-02 МОЩНОСТЬ: 1069.989 [кВт] СУММА: 5349.945 [руб]
[85] ДАТА: 2018-03-01 МОЩНОСТЬ: 1069.83 [кВт] СУММА: 5349.15 [руб]
[86] ДАТА: 2018-02-28 МОЩНОСТЬ: 1069.671 [кВт] СУММА: 5348.355 [руб]
[87] ДАТА: 2018-02-27 МОЩНОСТЬ: 1069.517 [кВт] СУММА: 5347.585 [руб]
[88] ДАТА: 2018-02-26 МОЩНОСТЬ: 1069.381 [кВт] СУММА: 5346.905 [руб]
[89] ДАТА: 2018-02-25 МОЩНОСТЬ: 1069.244 [кВт] СУММА: 5346.22 [руб]
[90] ДАТА: 2018-02-24 МОЩНОСТЬ: 1069.107 [кВт] СУММА: 5345.535 [руб]
[91] ДАТА: 2018-02-23 МОЩНОСТЬ: 1068.97 [кВт] СУММА: 5344.85 [руб]
[92] ДАТА: 2018-02-22 МОЩНОСТЬ: 1068.833 [кВт] СУММА: 5344.165 [руб]
[93] ДАТА: 2018-02-21 МОЩНОСТЬ: 1068.695 [кВт] СУММА: 5343.475 [руб]
[94] ДАТА: 2018-02-20 МОЩНОСТЬ: 1068.557 [кВт] СУММА: 5342.785 [руб]
[95] ДАТА: 2018-02-19 МОЩНОСТЬ: 1068.417 [кВт] СУММА: 5342.085 [руб]
[96] ДАТА: 2018-02-18 МОЩНОСТЬ: 1051.65 [кВт] СУММА: 5258.25 [руб]
[97] ДАТА: 2018-02-17 МОЩНОСТЬ: 1012.87 [кВт] СУММА: 5064.35 [руб]
[98] ДАТА: 2018-02-16 МОЩНОСТЬ: 969.938 [кВт] СУММА: 4849.69 [руб]
[99] ДАТА: 2018-02-15 МОЩНОСТЬ: 969.833 [кВт] СУММА: 4849.165 [руб]
[100] ДАТА: 2018-02-14 МОЩНОСТЬ: 969.694 [кВт] СУММА: 4848.47 [руб]
[101] ДАТА: 2018-02-13 МОЩНОСТЬ: 969.554 [кВт] СУММА: 4847.77 [руб]
[102] ДАТА: 2018-02-12 МОЩНОСТЬ: 969.401 [кВт] СУММА: 4847.005 [руб]
[103] ДАТА: 2018-02-11 МОЩНОСТЬ: 945.859 [кВт] СУММА: 4729.295 [руб]
[104] ДАТА: 2018-02-10 МОЩНОСТЬ: 908.854 [кВт] СУММА: 4544.27 [руб]
[105] ДАТА: 2018-02-09 МОЩНОСТЬ: 867.006 [кВт] СУММА: 4335.03 [руб]
[106] ДАТА: 2018-02-08 МОЩНОСТЬ: 866.867 [кВт] СУММА: 4334.335 [руб]
[107] ДАТА: 2018-02-06 МОЩНОСТЬ: 866.598 [кВт] СУММА: 4332.99 [руб]
[108] ДАТА: 2018-02-05 МОЩНОСТЬ: 866.458 [кВт] СУММА: 4332.29 [руб]
[109] ДАТА: 2018-02-04 МОЩНОСТЬ: 866.346 [кВт] СУММА: 4331.73 [руб]
[110] ДАТА: 2018-02-03 МОЩНОСТЬ: 866.19 [кВт] СУММА: 4330.95 [руб]
[111] ДАТА: 2018-02-02 МОЩНОСТЬ: 866.049 [кВт] СУММА: 4330.245 [руб]
[112] ДАТА: 2018-02-01 МОЩНОСТЬ: 865.91 [кВт] СУММА: 4329.55 [руб]
[113] ДАТА: 2018-01-31 МОЩНОСТЬ: 865.769 [кВт] СУММА: 4328.845 [руб]
[114] ДАТА: 2018-01-30 МОЩНОСТЬ: 865.618 [кВт] СУММА: 4328.09 [руб]
[115] ДАТА: 2018-01-29 МОЩНОСТЬ: 865.453 [кВт] СУММА: 4327.265 [руб]
[116] ДАТА: 2018-01-28 МОЩНОСТЬ: 865.287 [кВт] СУММА: 4326.435 [руб]
[117] ДАТА: 2018-01-27 МОЩНОСТЬ: 865.123 [кВт] СУММА: 4325.615 [руб]
[118] ДАТА: 2018-01-26 МОЩНОСТЬ: 864.982 [кВт] СУММА: 4324.91 [руб]
[119] ДАТА: 2018-01-25 МОЩНОСТЬ: 864.842 [кВт] СУММА: 4324.21 [руб]
[120] ДАТА: 2018-01-24 МОЩНОСТЬ: 864.702 [кВт] СУММА: 4323.51 [руб]
[121] ДАТА: 2018-01-23 МОЩНОСТЬ: 864.561 [кВт] СУММА: 4322.805 [руб]
[122] ДАТА: 2018-01-22 МОЩНОСТЬ: 864.422 [кВт] СУММА: 4322.11 [руб]
[123] ДАТА: 2018-01-21 МОЩНОСТЬ: 858.501 [кВт] СУММА: 4292.505 [руб]
[124] ДАТА: 2018-01-20 МОЩНОСТЬ: 804.296 [кВт] СУММА: 4021.48 [руб]
[125] ДАТА: 2018-01-19 МОЩНОСТЬ: 753.956 [кВт] СУММА: 3769.78 [руб]
[126] ДАТА: 2018-01-18 МОЩНОСТЬ: 753.815 [кВт] СУММА: 3769.075 [руб]
[127] ДАТА: 2018-01-17 МОЩНОСТЬ: 753.674 [кВт] СУММА: 3768.37 [руб]
[128] ДАТА: 2018-01-16 МОЩНОСТЬ: 753.427 [кВт] СУММА: 3767.135 [руб]
[129] ДАТА: 2018-01-15 МОЩНОСТЬ: 753.286 [кВт] СУММА: 3766.43 [руб]
[130] ДАТА: 2018-01-14 МОЩНОСТЬ: 753.146 [кВт] СУММА: 3765.73 [руб]
[131] ДАТА: 2018-01-13 МОЩНОСТЬ: 753.005 [кВт] СУММА: 3765.025 [руб]
[132] ДАТА: 2018-01-12 МОЩНОСТЬ: 752.865 [кВт] СУММА: 3764.325 [руб]
[133] ДАТА: 2018-01-11 МОЩНОСТЬ: 752.723 [кВт] СУММА: 3763.615 [руб]
[134] ДАТА: 2018-01-10 МОЩНОСТЬ: 752.583 [кВт] СУММА: 3762.915 [руб]
[135] ДАТА: 2018-01-09 МОЩНОСТЬ: 752.444 [кВт] СУММА: 3762.22 [руб]
[136] ДАТА: 2018-01-08 МОЩНОСТЬ: 752.302 [кВт] СУММА: 3761.51 [руб]
[137] ДАТА: 2018-01-07 МОЩНОСТЬ: 742.681 [кВт] СУММА: 3713.405 [руб]
[138] ДАТА: 2018-01-06 МОЩНОСТЬ: 715.866 [кВт] СУММА: 3579.33 [руб]
[139] ДАТА: 2018-01-05 МОЩНОСТЬ: 675.414 [кВт] СУММА: 3377.07 [руб]
[140] ДАТА: 2018-01-04 МОЩНОСТЬ: 675.272 [кВт] СУММА: 3376.36 [руб]
[141] ДАТА: 2018-01-03 МОЩНОСТЬ: 675.128 [кВт] СУММА: 3375.64 [руб]
[142] ДАТА: 2018-01-02 МОЩНОСТЬ: 674.985 [кВт] СУММА: 3374.925 [руб]
[143] ДАТА: 2018-01-01 МОЩНОСТЬ: 674.842 [кВт] СУММА: 3374.21 [руб]
[144] ДАТА: 2017-12-31 МОЩНОСТЬ: 674.699 [кВт] СУММА: 3373.495 [руб]
[145] ДАТА: 2017-12-30 МОЩНОСТЬ: 674.554 [кВт] СУММА: 3372.77 [руб]
[146] ДАТА: 2017-12-29 МОЩНОСТЬ: 674.41 [кВт] СУММА: 3372.05 [руб]
[147] ДАТА: 2017-12-28 МОЩНОСТЬ: 674.265 [кВт] СУММА: 3371.325 [руб]
[148] ДАТА: 2017-12-27 МОЩНОСТЬ: 674.12 [кВт] СУММА: 3370.6 [руб]
[149] ДАТА: 2017-12-26 МОЩНОСТЬ: 673.978 [кВт] СУММА: 3369.89 [руб]
[150] ДАТА: 2017-12-25 МОЩНОСТЬ: 673.837 [кВт] СУММА: 3369.185 [руб]
[151] ДАТА: 2017-12-24 МОЩНОСТЬ: 673.697 [кВт] СУММА: 3368.485 [руб]
[152] ДАТА: 2017-12-23 МОЩНОСТЬ: 673.555 [кВт] СУММА: 3367.775 [руб]
[153] ДАТА: 2017-12-22 МОЩНОСТЬ: 673.415 [кВт] СУММА: 3367.075 [руб]
[154] ДАТА: 2017-12-21 МОЩНОСТЬ: 673.274 [кВт] СУММА: 3366.37 [руб]
[155] ДАТА: 2017-12-20 МОЩНОСТЬ: 673.133 [кВт] СУММА: 3365.665 [руб]
[156] ДАТА: 2017-12-19 МОЩНОСТЬ: 672.991 [кВт] СУММА: 3364.955 [руб]
[157] ДАТА: 2017-12-18 МОЩНОСТЬ: 672.846 [кВт] СУММА: 3364.23 [руб]
[158] ДАТА: 2017-12-17 МОЩНОСТЬ: 672.702 [кВт] СУММА: 3363.51 [руб]
[159] ДАТА: 2017-12-16 МОЩНОСТЬ: 672.557 [кВт] СУММА: 3362.785 [руб]
[160] ДАТА: 2017-12-15 МОЩНОСТЬ: 672.414 [кВт] СУММА: 3362.07 [руб]
[161] ДАТА: 2017-12-14 МОЩНОСТЬ: 672.273 [кВт] СУММА: 3361.365 [руб]
[162] ДАТА: 2017-12-13 МОЩНОСТЬ: 672.131 [кВт] СУММА: 3360.655 [руб]
[163] ДАТА: 2017-12-12 МОЩНОСТЬ: 671.988 [кВт] СУММА: 3359.94 [руб]
[164] ДАТА: 2017-12-11 МОЩНОСТЬ: 671.846 [кВт] СУММА: 3359.23 [руб]
[165] ДАТА: 2017-12-10 МОЩНОСТЬ: 671.705 [кВт] СУММА: 3358.525 [руб]
[166] ДАТА: 2017-12-09 МОЩНОСТЬ: 671.564 [кВт] СУММА: 3357.82 [руб]
[167] ДАТА: 2017-12-08 МОЩНОСТЬ: 671.405 [кВт] СУММА: 3357.025 [руб]
[168] ДАТА: 2017-12-07 МОЩНОСТЬ: 671.265 [кВт] СУММА: 3356.325 [руб]
[169] ДАТА: 2017-12-06 МОЩНОСТЬ: 671.125 [кВт] СУММА: 3355.625 [руб]
[170] ДАТА: 2017-12-05 МОЩНОСТЬ: 670.985 [кВт] СУММА: 3354.925 [руб]
[171] ДАТА: 2017-12-04 МОЩНОСТЬ: 670.845 [кВт] СУММА: 3354.225 [руб]
[172] ДАТА: 2017-12-03 МОЩНОСТЬ: 670.705 [кВт] СУММА: 3353.525 [руб]
[173] ДАТА: 2017-12-02 МОЩНОСТЬ: 670.566 [кВт] СУММА: 3352.83 [руб]
[174] ДАТА: 2017-12-01 МОЩНОСТЬ: 669.908 [кВт] СУММА: 3349.54 [руб]
[175] ДАТА: 2017-11-30 МОЩНОСТЬ: 669.766 [кВт] СУММА: 3348.83 [руб]
[176] ДАТА: 2017-11-29 МОЩНОСТЬ: 669.625 [кВт] СУММА: 3348.125 [руб]
[177] ДАТА: 2017-11-28 МОЩНОСТЬ: 669.484 [кВт] СУММА: 3347.42 [руб]
[178] ДАТА: 2017-11-27 МОЩНОСТЬ: 669.34 [кВт] СУММА: 3346.7 [руб]
[179] ДАТА: 2017-11-26 МОЩНОСТЬ: 656.07 [кВт] СУММА: 3280.35 [руб]
[180] ДАТА: 2017-11-25 МОЩНОСТЬ: 618.977 [кВт] СУММА: 3094.885 [руб]
[181] ДАТА: 2017-11-24 МОЩНОСТЬ: 594.843 [кВт] СУММА: 2974.215 [руб]
[182] ДАТА: 2017-11-23 МОЩНОСТЬ: 594.843 [кВт] СУММА: 2974.215 [руб]
[183] ДАТА: 2017-11-22 МОЩНОСТЬ: 594.843 [кВт] СУММА: 2974.215 [руб]
[184] ДАТА: 2017-11-21 МОЩНОСТЬ: 594.843 [кВт] СУММА: 2974.215 [руб]
[185] ДАТА: 2017-11-20 МОЩНОСТЬ: 594.843 [кВт] СУММА: 2974.215 [руб]
[186] ДАТА: 2017-11-19 МОЩНОСТЬ: 594.843 [кВт] СУММА: 2974.215 [руб]
[187] ДАТА: 2017-11-18 МОЩНОСТЬ: 594.843 [кВт] СУММА: 2974.215 [руб]
[188] ДАТА: 2017-11-17 МОЩНОСТЬ: 594.843 [кВт] СУММА: 2974.215 [руб]
[189] ДАТА: 2017-11-16 МОЩНОСТЬ: 594.843 [кВт] СУММА: 2974.215 [руб]
[190] ДАТА: 2017-11-15 МОЩНОСТЬ: 594.843 [кВт] СУММА: 2974.215 [руб]
[191] ДАТА: 2017-11-14 МОЩНОСТЬ: 594.843 [кВт] СУММА: 2974.215 [руб]
[192] ДАТА: 2017-11-13 МОЩНОСТЬ: 594.843 [кВт] СУММА: 2974.215 [руб]
[193] ДАТА: 2017-11-12 МОЩНОСТЬ: 594.843 [кВт] СУММА: 2974.215 [руб]
[194] ДАТА: 2017-11-11 МОЩНОСТЬ: 594.843 [кВт] СУММА: 2974.215 [руб]
[195] ДАТА: 2017-11-10 МОЩНОСТЬ: 594.843 [кВт] СУММА: 2974.215 [руб]
[196] ДАТА: 2017-11-09 МОЩНОСТЬ: 594.843 [кВт] СУММА: 2974.215 [руб]
[197] ДАТА: 2017-11-08 МОЩНОСТЬ: 594.843 [кВт] СУММА: 2974.215 [руб]
[198] ДАТА: 2017-11-07 МОЩНОСТЬ: 594.843 [кВт] СУММА: 2974.215 [руб]
[199] ДАТА: 2017-11-06 МОЩНОСТЬ: 594.843 [кВт] СУММА: 2974.215 [руб]
[200] ДАТА: 2017-11-05 МОЩНОСТЬ: 594.843 [кВт] СУММА: 2974.215 [руб]
[201] ДАТА: 2017-11-04 МОЩНОСТЬ: 594.843 [кВт] СУММА: 2974.215 [руб]
[202] ДАТА: 2017-11-03 МОЩНОСТЬ: 594.843 [кВт] СУММА: 2974.215 [руб]
[203] ДАТА: 2017-11-02 МОЩНОСТЬ: 594.843 [кВт] СУММА: 2974.215 [руб]
[204] ДАТА: 2017-11-01 МОЩНОСТЬ: 594.843 [кВт] СУММА: 2974.215 [руб]
[205] ДАТА: 2017-10-31 МОЩНОСТЬ: 594.843 [кВт] СУММА: 2974.215 [руб]
[206] ДАТА: 2017-10-30 МОЩНОСТЬ: 594.843 [кВт] СУММА: 2974.215 [руб]
[207] ДАТА: 2017-10-29 МОЩНОСТЬ: 585.966 [кВт] СУММА: 2929.83 [руб]
[208] ДАТА: 2017-10-28 МОЩНОСТЬ: 547.997 [кВт] СУММА: 2739.985 [руб]
[209] ДАТА: 2017-10-27 МОЩНОСТЬ: 525.274 [кВт] СУММА: 2626.37 [руб]
[210] ДАТА: 2017-10-26 МОЩНОСТЬ: 525.274 [кВт] СУММА: 2626.37 [руб]
[211] ДАТА: 2017-10-25 МОЩНОСТЬ: 525.274 [кВт] СУММА: 2626.37 [руб]
[212] ДАТА: 2017-10-24 МОЩНОСТЬ: 525.274 [кВт] СУММА: 2626.37 [руб]
[213] ДАТА: 2017-10-23 МОЩНОСТЬ: 525.274 [кВт] СУММА: 2626.37 [руб]
[214] ДАТА: 2017-10-22 МОЩНОСТЬ: 525.274 [кВт] СУММА: 2626.37 [руб]
[215] ДАТА: 2017-10-21 МОЩНОСТЬ: 525.274 [кВт] СУММА: 2626.37 [руб]
[216] ДАТА: 2017-10-20 МОЩНОСТЬ: 525.274 [кВт] СУММА: 2626.37 [руб]
[217] ДАТА: 2017-10-19 МОЩНОСТЬ: 525.274 [кВт] СУММА: 2626.37 [руб]
[218] ДАТА: 2017-10-18 МОЩНОСТЬ: 525.274 [кВт] СУММА: 2626.37 [руб]
[219] ДАТА: 2017-10-17 МОЩНОСТЬ: 525.274 [кВт] СУММА: 2626.37 [руб]
[220] ДАТА: 2017-10-16 МОЩНОСТЬ: 525.274 [кВт] СУММА: 2626.37 [руб]
[221] ДАТА: 2017-10-15 МОЩНОСТЬ: 522.985 [кВт] СУММА: 2614.925 [руб]
[222] ДАТА: 2017-10-14 МОЩНОСТЬ: 504.328 [кВт] СУММА: 2521.64 [руб]
[223] ДАТА: 2017-10-13 МОЩНОСТЬ: 489.884 [кВт] СУММА: 2449.42 [руб]
[224] ДАТА: 2017-10-12 МОЩНОСТЬ: 489.884 [кВт] СУММА: 2449.42 [руб]
[225] ДАТА: 2017-10-11 МОЩНОСТЬ: 489.884 [кВт] СУММА: 2449.42 [руб]
[226] ДАТА: 2017-10-10 МОЩНОСТЬ: 489.884 [кВт] СУММА: 2449.42 [руб]
[227] ДАТА: 2017-10-09 МОЩНОСТЬ: 489.884 [кВт] СУММА: 2449.42 [руб]
[228] ДАТА: 2017-10-08 МОЩНОСТЬ: 489.884 [кВт] СУММА: 2449.42 [руб]
[229] ДАТА: 2017-10-07 МОЩНОСТЬ: 489.884 [кВт] СУММА: 2449.42 [руб]
[230] ДАТА: 2017-10-06 МОЩНОСТЬ: 489.884 [кВт] СУММА: 2449.42 [руб]
[231] ДАТА: 2017-10-05 МОЩНОСТЬ: 489.884 [кВт] СУММА: 2449.42 [руб]
[232] ДАТА: 2017-10-04 МОЩНОСТЬ: 489.884 [кВт] СУММА: 2449.42 [руб]
[233] ДАТА: 2017-10-03 МОЩНОСТЬ: 489.884 [кВт] СУММА: 2449.42 [руб]
[234] ДАТА: 2017-10-02 МОЩНОСТЬ: 489.884 [кВт] СУММА: 2449.42 [руб]
[235] ДАТА: 2017-10-01 МОЩНОСТЬ: 481.279 [кВт] СУММА: 2406.395 [руб]
[236] ДАТА: 2017-09-30 МОЩНОСТЬ: 458.453 [кВт] СУММА: 2292.265 [руб]
[237] ДАТА: 2017-09-29 МОЩНОСТЬ: 446.864 [кВт] СУММА: 2234.32 [руб]
[238] ДАТА: 2017-09-28 МОЩНОСТЬ: 446.864 [кВт] СУММА: 2234.32 [руб]
[239] ДАТА: 2017-09-26 МОЩНОСТЬ: 446.864 [кВт] СУММА: 2234.32 [руб]
[240] ДАТА: 2017-09-25 МОЩНОСТЬ: 446.864 [кВт] СУММА: 2234.32 [руб]
[241] ДАТА: 2017-09-24 МОЩНОСТЬ: 439.715 [кВт] СУММА: 2198.575 [руб]
[242] ДАТА: 2017-09-23 МОЩНОСТЬ: 423.029 [кВт] СУММА: 2115.145 [руб]
[243] ДАТА: 2017-09-22 МОЩНОСТЬ: 415.711 [кВт] СУММА: 2078.555 [руб]
[244] ДАТА: 2017-09-21 МОЩНОСТЬ: 415.711 [кВт] СУММА: 2078.555 [руб]
[245] ДАТА: 2017-09-20 МОЩНОСТЬ: 415.711 [кВт] СУММА: 2078.555 [руб]
[246] ДАТА: 2017-09-19 МОЩНОСТЬ: 415.711 [кВт] СУММА: 2078.555 [руб]
[247] ДАТА: 2017-09-18 МОЩНОСТЬ: 415.711 [кВт] СУММА: 2078.555 [руб]
[248] ДАТА: 2017-09-17 МОЩНОСТЬ: 412.812 [кВт] СУММА: 2064.06 [руб]
[249] ДАТА: 2017-09-16 МОЩНОСТЬ: 405.136 [кВт] СУММА: 2025.68 [руб]
[250] ДАТА: 2017-09-15 МОЩНОСТЬ: 401.996 [кВт] СУММА: 2009.98 [руб]
[251] ДАТА: 2017-09-14 МОЩНОСТЬ: 401.996 [кВт] СУММА: 2009.98 [руб]
[252] ДАТА: 2017-09-13 МОЩНОСТЬ: 401.996 [кВт] СУММА: 2009.98 [руб]
[253] ДАТА: 2017-09-12 МОЩНОСТЬ: 401.996 [кВт] СУММА: 2009.98 [руб]
[254] ДАТА: 2017-09-11 МОЩНОСТЬ: 401.996 [кВт] СУММА: 2009.98 [руб]
[255] ДАТА: 2017-09-10 МОЩНОСТЬ: 401.996 [кВт] СУММА: 2009.98 [руб]
[256] ДАТА: 2017-09-09 МОЩНОСТЬ: 401.996 [кВт] СУММА: 2009.98 [руб]
[257] ДАТА: 2017-09-08 МОЩНОСТЬ: 401.996 [кВт] СУММА: 2009.98 [руб]
[258] ДАТА: 2017-09-07 МОЩНОСТЬ: 401.996 [кВт] СУММА: 2009.98 [руб]
[259] ДАТА: 2017-09-06 МОЩНОСТЬ: 401.996 [кВт] СУММА: 2009.98 [руб]
[260] ДАТА: 2017-09-05 МОЩНОСТЬ: 401.996 [кВт] СУММА: 2009.98 [руб]
[261] ДАТА: 2017-09-04 МОЩНОСТЬ: 401.996 [кВт] СУММА: 2009.98 [руб]
[262] ДАТА: 2017-09-03 МОЩНОСТЬ: 400.829 [кВт] СУММА: 2004.145 [руб]
[263] ДАТА: 2017-09-02 МОЩНОСТЬ: 387.762 [кВт] СУММА: 1938.81 [руб]
[264] ДАТА: 2017-09-01 МОЩНОСТЬ: 381.35 [кВт] СУММА: 1906.75 [руб]
[265] ДАТА: 2017-08-31 МОЩНОСТЬ: 381.35 [кВт] СУММА: 1906.75 [руб]
[266] ДАТА: 2017-08-30 МОЩНОСТЬ: 381.35 [кВт] СУММА: 1906.75 [руб]
[267] ДАТА: 2017-08-29 МОЩНОСТЬ: 381.35 [кВт] СУММА: 1906.75 [руб]
[268] ДАТА: 2017-08-28 МОЩНОСТЬ: 381.35 [кВт] СУММА: 1906.75 [руб]
[269] ДАТА: 2017-08-27 МОЩНОСТЬ: 379.81 [кВт] СУММА: 1899.05 [руб]
[270] ДАТА: 2017-08-26 МОЩНОСТЬ: 371.466 [кВт] СУММА: 1857.33 [руб]
[271] ДАТА: 2017-08-25 МОЩНОСТЬ: 366.147 [кВт] СУММА: 1830.735 [руб]
[272] ДАТА: 2017-08-24 МОЩНОСТЬ: 364.912 [кВт] СУММА: 1824.56 [руб]
[273] ДАТА: 2017-08-23 МОЩНОСТЬ: 364.912 [кВт] СУММА: 1824.56 [руб]
[274] ДАТА: 2017-08-22 МОЩНОСТЬ: 364.747 [кВт] СУММА: 1823.735 [руб]
[275] ДАТА: 2017-08-21 МОЩНОСТЬ: 364.34 [кВт] СУММА: 1821.7 [руб]
[276] ДАТА: 2017-08-20 МОЩНОСТЬ: 363.008 [кВт] СУММА: 1815.04 [руб]
[277] ДАТА: 2017-08-19 МОЩНОСТЬ: 359.536 [кВт] СУММА: 1797.68 [руб]
[278] ДАТА: 2017-08-18 МОЩНОСТЬ: 353.585 [кВт] СУММА: 1767.925 [руб]
[279] ДАТА: 2017-08-17 МОЩНОСТЬ: 351.405 [кВт] СУММА: 1757.025 [руб]
[280] ДАТА: 2017-08-16 МОЩНОСТЬ: 351.405 [кВт] СУММА: 1757.025 [руб]
[281] ДАТА: 2017-08-15 МОЩНОСТЬ: 349.252 [кВт] СУММА: 1746.26 [руб]
[282] ДАТА: 2017-08-14 МОЩНОСТЬ: 349.252 [кВт] СУММА: 1746.26 [руб]
[283] ДАТА: 2017-08-13 МОЩНОСТЬ: 346.814 [кВт] СУММА: 1734.07 [руб]
[284] ДАТА: 2017-08-12 МОЩНОСТЬ: 343.592 [кВт] СУММА: 1717.96 [руб]
[285] ДАТА: 2017-08-11 МОЩНОСТЬ: 343.383 [кВт] СУММА: 1716.915 [руб]
[286] ДАТА: 2017-08-10 МОЩНОСТЬ: 343.383 [кВт] СУММА: 1716.915 [руб]
[287] ДАТА: 2017-08-09 МОЩНОСТЬ: 343.383 [кВт] СУММА: 1716.915 [руб]
[288] ДАТА: 2017-08-08 МОЩНОСТЬ: 341.766 [кВт] СУММА: 1708.83 [руб]
[289] ДАТА: 2017-08-07 МОЩНОСТЬ: 340.286 [кВт] СУММА: 1701.43 [руб]
[290] ДАТА: 2017-08-06 МОЩНОСТЬ: 338.127 [кВт] СУММА: 1690.635 [руб]
[291] ДАТА: 2017-08-05 МОЩНОСТЬ: 335.191 [кВт] СУММА: 1675.955 [руб]
[292] ДАТА: 2017-08-04 МОЩНОСТЬ: 334.981 [кВт] СУММА: 1674.905 [руб]
[293] ДАТА: 2017-08-03 МОЩНОСТЬ: 334.981 [кВт] СУММА: 1674.905 [руб]
[294] ДАТА: 2017-08-02 МОЩНОСТЬ: 333.892 [кВт] СУММА: 1669.46 [руб]
[295] ДАТА: 2017-08-01 МОЩНОСТЬ: 333.892 [кВт] СУММА: 1669.46 [руб]
[296] ДАТА: 2017-07-31 МОЩНОСТЬ: 333.892 [кВт] СУММА: 1669.46 [руб]
[297] ДАТА: 2017-07-30 МОЩНОСТЬ: 333.026 [кВт] СУММА: 1665.13 [руб]
[298] ДАТА: 2017-07-29 МОЩНОСТЬ: 330.517 [кВт] СУММА: 1652.585 [руб]
[299] ДАТА: 2017-07-28 МОЩНОСТЬ: 326.098 [кВт] СУММА: 1630.49 [руб]
[300] ДАТА: 2017-07-27 МОЩНОСТЬ: 326.098 [кВт] СУММА: 1630.49 [руб]
[301] ДАТА: 2017-07-26 МОЩНОСТЬ: 326.098 [кВт] СУММА: 1630.49 [руб]
[302] ДАТА: 2017-07-25 МОЩНОСТЬ: 326.098 [кВт] СУММА: 1630.49 [руб]
[303] ДАТА: 2017-07-24 МОЩНОСТЬ: 326.098 [кВт] СУММА: 1630.49 [руб]
[304] ДАТА: 2017-07-23 МОЩНОСТЬ: 326.098 [кВт] СУММА: 1630.49 [руб]
[305] ДАТА: 2017-07-22 МОЩНОСТЬ: 326.098 [кВт] СУММА: 1630.49 [руб]
[306] ДАТА: 2017-07-21 МОЩНОСТЬ: 326.098 [кВт] СУММА: 1630.49 [руб]
[307] ДАТА: 2017-07-20 МОЩНОСТЬ: 326.098 [кВт] СУММА: 1630.49 [руб]
[308] ДАТА: 2017-07-19 МОЩНОСТЬ: 326.098 [кВт] СУММА: 1630.49 [руб]
[309] ДАТА: 2017-07-18 МОЩНОСТЬ: 326.098 [кВт] СУММА: 1630.49 [руб]
[310] ДАТА: 2017-07-17 МОЩНОСТЬ: 326.098 [кВт] СУММА: 1630.49 [руб]
[311] ДАТА: 2017-07-16 МОЩНОСТЬ: 325.274 [кВт] СУММА: 1626.37 [руб]
[312] ДАТА: 2017-07-15 МОЩНОСТЬ: 317.637 [кВт] СУММА: 1588.185 [руб]
[313] ДАТА: 2017-07-13 МОЩНОСТЬ: 316.217 [кВт] СУММА: 1581.085 [руб]
[314] ДАТА: 2017-07-12 МОЩНОСТЬ: 315.744 [кВт] СУММА: 1578.72 [руб]
[315] ДАТА: 2017-07-11 МОЩНОСТЬ: 315.744 [кВт] СУММА: 1578.72 [руб]
[316] ДАТА: 2017-07-10 МОЩНОСТЬ: 315.744 [кВт] СУММА: 1578.72 [руб]
[317] ДАТА: 2017-07-09 МОЩНОСТЬ: 305.784 [кВт] СУММА: 1528.92 [руб]
[318] ДАТА: 2017-07-08 МОЩНОСТЬ: 290.009 [кВт] СУММА: 1450.045 [руб]
[319] ДАТА: 2017-07-07 МОЩНОСТЬ: 287.504 [кВт] СУММА: 1437.52 [руб]
[320] ДАТА: 2017-07-06 МОЩНОСТЬ: 287.504 [кВт] СУММА: 1437.52 [руб]
[321] ДАТА: 2017-07-05 МОЩНОСТЬ: 287.504 [кВт] СУММА: 1437.52 [руб]
[322] ДАТА: 2017-07-04 МОЩНОСТЬ: 287.504 [кВт] СУММА: 1437.52 [руб]
[323] ДАТА: 2017-07-03 МОЩНОСТЬ: 287.504 [кВт] СУММА: 1437.52 [руб]
[324] ДАТА: 2017-07-02 МОЩНОСТЬ: 286.285 [кВт] СУММА: 1431.425 [руб]
[325] ДАТА: 2017-07-01 МОЩНОСТЬ: 275.751 [кВт] СУММА: 1378.755 [руб]
[326] ДАТА: 2017-06-30 МОЩНОСТЬ: 275.751 [кВт] СУММА: 1378.755 [руб]
[327] ДАТА: 2017-06-29 МОЩНОСТЬ: 275.751 [кВт] СУММА: 1378.755 [руб]
[328] ДАТА: 2017-06-28 МОЩНОСТЬ: 275.751 [кВт] СУММА: 1378.755 [руб]
[329] ДАТА: 2017-06-27 МОЩНОСТЬ: 275.751 [кВт] СУММА: 1378.755 [руб]
[330] ДАТА: 2017-06-26 МОЩНОСТЬ: 275.751 [кВт] СУММА: 1378.755 [руб]
[331] ДАТА: 2017-06-25 МОЩНОСТЬ: 275.751 [кВт] СУММА: 1378.755 [руб]
[332] ДАТА: 2017-06-24 МОЩНОСТЬ: 275.751 [кВт] СУММА: 1378.755 [руб]
[333] ДАТА: 2017-06-23 МОЩНОСТЬ: 275.751 [кВт] СУММА: 1378.755 [руб]
[334] ДАТА: 2017-06-22 МОЩНОСТЬ: 275.751 [кВт] СУММА: 1378.755 [руб]
[335] ДАТА: 2017-06-21 МОЩНОСТЬ: 275.751 [кВт] СУММА: 1378.755 [руб]
[336] ДАТА: 2017-06-20 МОЩНОСТЬ: 275.751 [кВт] СУММА: 1378.755 [руб]
[337] ДАТА: 2017-06-19 МОЩНОСТЬ: 275.751 [кВт] СУММА: 1378.755 [руб]
[338] ДАТА: 2017-06-18 МОЩНОСТЬ: 275.751 [кВт] СУММА: 1378.755 [руб]
[339] ДАТА: 2017-06-17 МОЩНОСТЬ: 275.751 [кВт] СУММА: 1378.755 [руб]
[340] ДАТА: 2017-06-16 МОЩНОСТЬ: 275.751 [кВт] СУММА: 1378.755 [руб]
[341] ДАТА: 2017-06-15 МОЩНОСТЬ: 275.751 [кВт] СУММА: 1378.755 [руб]
[342] ДАТА: 2017-06-14 МОЩНОСТЬ: 275.751 [кВт] СУММА: 1378.755 [руб]
[343] ДАТА: 2017-06-13 МОЩНОСТЬ: 275.751 [кВт] СУММА: 1378.755 [руб]
[344] ДАТА: 2017-06-12 МОЩНОСТЬ: 271.563 [кВт] СУММА: 1357.815 [руб]
[345] ДАТА: 2017-06-11 МОЩНОСТЬ: 259.471 [кВт] СУММА: 1297.355 [руб]
[346] ДАТА: 2017-06-10 МОЩНОСТЬ: 255.953 [кВт] СУММА: 1279.765 [руб]
[347] ДАТА: 2017-06-09 МОЩНОСТЬ: 255.953 [кВт] СУММА: 1279.765 [руб]
[348] ДАТА: 2017-06-08 МОЩНОСТЬ: 255.953 [кВт] СУММА: 1279.765 [руб]
[349] ДАТА: 2017-06-07 МОЩНОСТЬ: 255.953 [кВт] СУММА: 1279.765 [руб]
[350] ДАТА: 2017-06-06 МОЩНОСТЬ: 255.953 [кВт] СУММА: 1279.765 [руб]
[351] ДАТА: 2017-06-05 МОЩНОСТЬ: 255.953 [кВт] СУММА: 1279.765 [руб]
[352] ДАТА: 2017-06-04 МОЩНОСТЬ: 248.735 [кВт] СУММА: 1243.675 [руб]
[353] ДАТА: 2017-06-03 МОЩНОСТЬ: 233.546 [кВт] СУММА: 1167.73 [руб]
[354] ДАТА: 2017-06-02 МОЩНОСТЬ: 226.704 [кВт] СУММА: 1133.52 [руб]
[355] ДАТА: 2017-06-01 МОЩНОСТЬ: 226.704 [кВт] СУММА: 1133.52 [руб]
[356] ДАТА: 2017-05-31 МОЩНОСТЬ: 226.704 [кВт] СУММА: 1133.52 [руб]
[357] ДАТА: 2017-05-30 МОЩНОСТЬ: 226.704 [кВт] СУММА: 1133.52 [руб]
[358] ДАТА: 2017-05-29 МОЩНОСТЬ: 226.704 [кВт] СУММА: 1133.52 [руб]
[359] ДАТА: 2017-05-28 МОЩНОСТЬ: 226.704 [кВт] СУММА: 1133.52 [руб]
[360] ДАТА: 2017-05-27 МОЩНОСТЬ: 226.704 [кВт] СУММА: 1133.52 [руб]
[361] ДАТА: 2017-05-26 МОЩНОСТЬ: 226.704 [кВт] СУММА: 1133.52 [руб]
[362] ДАТА: 2017-05-24 МОЩНОСТЬ: 226.704 [кВт] СУММА: 1133.52 [руб]
[363] ДАТА: 2017-05-23 МОЩНОСТЬ: 226.704 [кВт] СУММА: 1133.52 [руб]
[364] ДАТА: 2017-05-22 МОЩНОСТЬ: 226.704 [кВт] СУММА: 1133.52 [руб]
[365] ДАТА: 2017-05-21 МОЩНОСТЬ: 225.386 [кВт] СУММА: 1126.93 [руб]
[366] ДАТА: 2017-05-20 МОЩНОСТЬ: 217.97 [кВт] СУММА: 1089.85 [руб]
[367] ДАТА: 2017-05-19 МОЩНОСТЬ: 217.97 [кВт] СУММА: 1089.85 [руб]
[368] ДАТА: 2017-05-18 МОЩНОСТЬ: 217.97 [кВт] СУММА: 1089.85 [руб]
[369] ДАТА: 2017-05-17 МОЩНОСТЬ: 217.97 [кВт] СУММА: 1089.85 [руб]
[370] ДАТА: 2017-05-16 МОЩНОСТЬ: 217.97 [кВт] СУММА: 1089.85 [руб]
[371] ДАТА: 2017-05-15 МОЩНОСТЬ: 217.97 [кВт] СУММА: 1089.85 [руб]
[372] ДАТА: 2017-05-14 МОЩНОСТЬ: 217.97 [кВт] СУММА: 1089.85 [руб]
[373] ДАТА: 2017-05-13 МОЩНОСТЬ: 217.97 [кВт] СУММА: 1089.85 [руб]
[374] ДАТА: 2017-05-12 МОЩНОСТЬ: 217.97 [кВт] СУММА: 1089.85 [руб]
[375] ДАТА: 2017-05-11 МОЩНОСТЬ: 209.222 [кВт] СУММА: 1046.11 [руб]
[376] ДАТА: 2017-05-10 МОЩНОСТЬ: 195.811 [кВт] СУММА: 979.055 [руб]
[377] ДАТА: 2017-05-09 МОЩНОСТЬ: 195.811 [кВт] СУММА: 979.055 [руб]
[378] ДАТА: 2017-05-08 МОЩНОСТЬ: 186.306 [кВт] СУММА: 931.53 [руб]
[379] ДАТА: 2017-05-07 МОЩНОСТЬ: 172.863 [кВт] СУММА: 864.315 [руб]
[380] ДАТА: 2017-05-06 МОЩНОСТЬ: 169.37 [кВт] СУММА: 846.85 [руб]
[381] ДАТА: 2017-05-05 МОЩНОСТЬ: 169.37 [кВт] СУММА: 846.85 [руб]
[382] ДАТА: 2017-05-04 МОЩНОСТЬ: 169.37 [кВт] СУММА: 846.85 [руб]
[383] ДАТА: 2017-05-03 МОЩНОСТЬ: 169.37 [кВт] СУММА: 846.85 [руб]
[384] ДАТА: 2017-05-02 МОЩНОСТЬ: 169.37 [кВт] СУММА: 846.85 [руб]
[385] ДАТА: 2017-05-01 МОЩНОСТЬ: 168.506 [кВт] СУММА: 842.53 [руб]
[386] ДАТА: 2017-04-30 МОЩНОСТЬ: 165.087 [кВт] СУММА: 825.435 [руб]
[387] ДАТА: 2017-04-29 МОЩНОСТЬ: 152.772 [кВт] СУММА: 763.86 [руб]
[388] ДАТА: 2017-04-28 МОЩНОСТЬ: 148.961 [кВт] СУММА: 744.805 [руб]
[389] ДАТА: 2017-04-27 МОЩНОСТЬ: 148.961 [кВт] СУММА: 744.805 [руб]
[390] ДАТА: 2017-04-26 МОЩНОСТЬ: 148.961 [кВт] СУММА: 744.805 [руб]
[391] ДАТА: 2017-04-25 МОЩНОСТЬ: 148.961 [кВт] СУММА: 744.805 [руб]
[392] ДАТА: 2017-04-24 МОЩНОСТЬ: 148.961 [кВт] СУММА: 744.805 [руб]
[393] ДАТА: 2017-04-23 МОЩНОСТЬ: 138.992 [кВт] СУММА: 694.96 [руб]
[394] ДАТА: 2017-04-22 МОЩНОСТЬ: 126.432 [кВт] СУММА: 632.16 [руб]
[395] ДАТА: 2017-04-21 МОЩНОСТЬ: 126.432 [кВт] СУММА: 632.16 [руб]
[396] ДАТА: 2017-04-20 МОЩНОСТЬ: 126.432 [кВт] СУММА: 632.16 [руб]
[397] ДАТА: 2017-04-19 МОЩНОСТЬ: 126.432 [кВт] СУММА: 632.16 [руб]
[398] ДАТА: 2017-04-18 МОЩНОСТЬ: 126.432 [кВт] СУММА: 632.16 [руб]
[399] ДАТА: 2017-04-17 МОЩНОСТЬ: 126.432 [кВт] СУММА: 632.16 [руб]
[400] ДАТА: 2017-04-16 МОЩНОСТЬ: 126.432 [кВт] СУММА: 632.16 [руб]
[401] ДАТА: 2017-04-15 МОЩНОСТЬ: 126.432 [кВт] СУММА: 632.16 [руб]
[402] ДАТА: 2017-04-14 МОЩНОСТЬ: 126.432 [кВт] СУММА: 632.16 [руб]
[403] ДАТА: 2017-04-13 МОЩНОСТЬ: 126.432 [кВт] СУММА: 632.16 [руб]
[404] ДАТА: 2017-04-12 МОЩНОСТЬ: 126.432 [кВт] СУММА: 632.16 [руб]
[405] ДАТА: 2017-04-11 МОЩНОСТЬ: 126.432 [кВт] СУММА: 632.16 [руб]
[406] ДАТА: 2017-04-10 МОЩНОСТЬ: 126.432 [кВт] СУММА: 632.16 [руб]
[407] ДАТА: 2017-04-09 МОЩНОСТЬ: 126.432 [кВт] СУММА: 632.16 [руб]
[408] ДАТА: 2017-04-08 МОЩНОСТЬ: 125.782 [кВт] СУММА: 628.91 [руб]
[409] ДАТА: 2017-04-07 МОЩНОСТЬ: 125.782 [кВт] СУММА: 628.91 [руб]
[410] ДАТА: 2017-04-06 МОЩНОСТЬ: 124.403 [кВт] СУММА: 622.015 [руб]
[411] ДАТА: 2017-04-05 МОЩНОСТЬ: 123.269 [кВт] СУММА: 616.345 [руб]
[412] ДАТА: 2017-04-04 МОЩНОСТЬ: 116.575 [кВт] СУММА: 582.875 [руб]
[413] ДАТА: 2017-04-03 МОЩНОСТЬ: 107.884 [кВт] СУММА: 539.42 [руб]
[414] ДАТА: 2017-04-02 МОЩНОСТЬ: 106.801 [кВт] СУММА: 534.005 [руб]
[415] ДАТА: 2017-04-01 МОЩНОСТЬ: 105.234 [кВт] СУММА: 526.17 [руб]
[416] ДАТА: 2017-03-31 МОЩНОСТЬ: 105.234 [кВт] СУММА: 526.17 [руб]
[417] ДАТА: 2017-03-30 МОЩНОСТЬ: 87.474 [кВт] СУММА: 437.37 [руб]
[418] ДАТА: 2017-03-29 МОЩНОСТЬ: 63.372 [кВт] СУММА: 316.86 [руб]
[419] ДАТА: 2017-03-28 МОЩНОСТЬ: 45.422 [кВт] СУММА: 227.11 [руб]
[420] ДАТА: 2017-03-27 МОЩНОСТЬ: 45.018 [кВт] СУММА: 225.09 [руб]
[421] ДАТА: 2017-03-26 МОЩНОСТЬ: 44.619 [кВт] СУММА: 223.095 [руб]
[422] ДАТА: 2017-03-25 МОЩНОСТЬ: 44.221 [кВт] СУММА: 221.105 [руб]
[423] ДАТА: 2017-03-24 МОЩНОСТЬ: 43.82 [кВт] СУММА: 219.1 [руб]
[424] ДАТА: 2017-03-23 МОЩНОСТЬ: 43.417 [кВт] СУММА: 217.085 [руб]
[425] ДАТА: 2017-03-22 МОЩНОСТЬ: 43.013 [кВт] СУММА: 215.065 [руб]
[426] ДАТА: 2017-03-21 МОЩНОСТЬ: 42.609 [кВт] СУММА: 213.045 [руб]
[427] ДАТА: 2017-03-20 МОЩНОСТЬ: 42.208 [кВт] СУММА: 211.04 [руб]
[428] ДАТА: 2017-03-19 МОЩНОСТЬ: 41.81 [кВт] СУММА: 209.05 [руб]
[429] ДАТА: 2017-03-18 МОЩНОСТЬ: 41.416 [кВт] СУММА: 207.08 [руб]
[430] ДАТА: 2017-03-17 МОЩНОСТЬ: 40.044 [кВт] СУММА: 200.22 [руб]
[431] ДАТА: 2017-03-16 МОЩНОСТЬ: 38.389 [кВт] СУММА: 191.945 [руб]
[432] ДАТА: 2017-03-15 МОЩНОСТЬ: 35.836 [кВт] СУММА: 179.18 [руб]
[433] ДАТА: 2017-03-14 МОЩНОСТЬ: 34.046 [кВт] СУММА: 170.23 [руб]
[434] ДАТА: 2017-03-13 МОЩНОСТЬ: 32.38 [кВт] СУММА: 161.9 [руб]
[435] ДАТА: 2017-03-12 МОЩНОСТЬ: 31.329 [кВт] СУММА: 156.645 [руб]
[436] ДАТА: 2017-03-11 МОЩНОСТЬ: 31.329 [кВт] СУММА: 156.645 [руб]
[437] ДАТА: 2017-03-10 МОЩНОСТЬ: 31.329 [кВт] СУММА: 156.645 [руб]
[438] ДАТА: 2017-03-09 МОЩНОСТЬ: 30.006 [кВт] СУММА: 150.03 [руб]
[439] ДАТА: 2017-03-08 МОЩНОСТЬ: 26.523 [кВт] СУММА: 132.615 [руб]
[440] ДАТА: 2017-03-07 МОЩНОСТЬ: 25.58 [кВт] СУММА: 127.9 [руб]
[441] ДАТА: 2017-03-06 МОЩНОСТЬ: 24.54 [кВт] СУММА: 122.7 [руб]
[442] ДАТА: 2017-03-05 МОЩНОСТЬ: 24.54 [кВт] СУММА: 122.7 [руб]
[443] ДАТА: 2017-03-04 МОЩНОСТЬ: 24.54 [кВт] СУММА: 122.7 [руб]
[444] ДАТА: 2017-03-03 МОЩНОСТЬ: 24.54 [кВт] СУММА: 122.7 [руб]
[445] ДАТА: 2017-03-02 МОЩНОСТЬ: 24.54 [кВт] СУММА: 122.7 [руб]
[446] ДАТА: 2017-03-01 МОЩНОСТЬ: 24.54 [кВт] СУММА: 122.7 [руб]
[447] ДАТА: 2017-02-28 МОЩНОСТЬ: 24.54 [кВт] СУММА: 122.7 [руб]
[448] ДАТА: 2017-02-27 МОЩНОСТЬ: 24.54 [кВт] СУММА: 122.7 [руб]
[449] ДАТА: 2016-09-02 МОЩНОСТЬ: 23.395 [кВт] СУММА: 116.975 [руб]
[450] ДАТА: 2016-09-01 МОЩНОСТЬ: 22.661 [кВт] СУММА: 113.305 [руб]
[451] ДАТА: 2016-08-31 МОЩНОСТЬ: 21.99 [кВт] СУММА: 109.95 [руб]
[452] ДАТА: 2016-08-30 МОЩНОСТЬ: 21.59 [кВт] СУММА: 107.95 [руб]
[453] ДАТА: 2016-08-29 МОЩНОСТЬ: 21.489 [кВт] СУММА: 107.445 [руб]
[454] ДАТА: 2016-08-28 МОЩНОСТЬ: 21.489 [кВт] СУММА: 107.445 [руб]
[455] ДАТА: 2016-08-24 МОЩНОСТЬ: 21.489 [кВт] СУММА: 107.445 [руб]
[456] ДАТА: 2016-08-23 МОЩНОСТЬ: 21.489 [кВт] СУММА: 107.445 [руб]
[457] ДАТА: 2016-08-22 МОЩНОСТЬ: 21.489 [кВт] СУММА: 107.445 [руб]
[458] ДАТА: 2016-08-21 МОЩНОСТЬ: 21.489 [кВт] СУММА: 107.445 [руб]
[459] ДАТА: 2016-08-20 МОЩНОСТЬ: 21.489 [кВт] СУММА: 107.445 [руб]
[460] ДАТА: 2016-08-19 МОЩНОСТЬ: 21.489 [кВт] СУММА: 107.445 [руб]
[461] ДАТА: 2016-08-16 МОЩНОСТЬ: 21.489 [кВт] СУММА: 107.445 [руб]
[462] ДАТА: 2016-08-15 МОЩНОСТЬ: 21.489 [кВт] СУММА: 107.445 [руб]
[463] ДАТА: 2016-08-14 МОЩНОСТЬ: 21.489 [кВт] СУММА: 107.445 [руб]
[464] ДАТА: 2016-08-13 МОЩНОСТЬ: 21.489 [кВт] СУММА: 107.445 [руб]
[465] ДАТА: 2016-08-12 МОЩНОСТЬ: 21.489 [кВт] СУММА: 107.445 [руб]
[466] ДАТА: 2016-08-09 МОЩНОСТЬ: 21.489 [кВт] СУММА: 107.445 [руб]
[467] ДАТА: 2016-08-08 МОЩНОСТЬ: 21.489 [кВт] СУММА: 107.445 [руб]
[468] ДАТА: 2016-08-07 МОЩНОСТЬ: 21.489 [кВт] СУММА: 107.445 [руб]
[469] ДАТА: 2016-08-06 МОЩНОСТЬ: 21.489 [кВт] СУММА: 107.445 [руб]
[470] ДАТА: 2016-08-05 МОЩНОСТЬ: 21.489 [кВт] СУММА: 107.445 [руб]
[471] ДАТА: 2016-08-02 МОЩНОСТЬ: 21.489 [кВт] СУММА: 107.445 [руб]
[472] ДАТА: 2016-08-01 МОЩНОСТЬ: 21.489 [кВт] СУММА: 107.445 [руб]
[473] ДАТА: 2016-07-31 МОЩНОСТЬ: 21.489 [кВт] СУММА: 107.445 [руб]
[474] ДАТА: 2016-07-30 МОЩНОСТЬ: 21.489 [кВт] СУММА: 107.445 [руб]
[475] ДАТА: 2016-07-29 МОЩНОСТЬ: 21.489 [кВт] СУММА: 107.445 [руб]
[476] ДАТА: 2016-07-28 МОЩНОСТЬ: 21.489 [кВт] СУММА: 107.445 [руб]
[477] ДАТА: 2016-07-27 МОЩНОСТЬ: 21.489 [кВт] СУММА: 107.445 [руб]
[478] ДАТА: 2016-07-26 МОЩНОСТЬ: 21.489 [кВт] СУММА: 107.445 [руб]
[479] ДАТА: 2016-07-25 МОЩНОСТЬ: 21.489 [кВт] СУММА: 107.445 [руб]
[480] ДАТА: 2016-07-24 МОЩНОСТЬ: 21.489 [кВт] СУММА: 107.445 [руб]
[481] ДАТА: 2016-07-23 МОЩНОСТЬ: 21.489 [кВт] СУММА: 107.445 [руб]
[482] ДАТА: 2016-07-22 МОЩНОСТЬ: 21.489 [кВт] СУММА: 107.445 [руб]
[483] ДАТА: 2016-07-21 МОЩНОСТЬ: 21.489 [кВт] СУММА: 107.445 [руб]
[484] ДАТА: 2016-07-20 МОЩНОСТЬ: 21.489 [кВт] СУММА: 107.445 [руб]
[485] ДАТА: 2016-07-17 МОЩНОСТЬ: 21.489 [кВт] СУММА: 107.445 [руб]
[486] ДАТА: 2016-07-16 МОЩНОСТЬ: 21.489 [кВт] СУММА: 107.445 [руб]
[487] ДАТА: 2016-07-15 МОЩНОСТЬ: 21.489 [кВт] СУММА: 107.445 [руб]
[488] ДАТА: 2016-07-14 МОЩНОСТЬ: 21.489 [кВт] СУММА: 107.445 [руб]
[489] ДАТА: 2016-07-13 МОЩНОСТЬ: 21.489 [кВт] СУММА: 107.445 [руб]
[490] ДАТА: 2016-07-12 МОЩНОСТЬ: 21.489 [кВт] СУММА: 107.445 [руб]
[491] ДАТА: 2016-07-11 МОЩНОСТЬ: 21.489 [кВт] СУММА: 107.445 [руб]
[492] ДАТА: 2016-07-10 МОЩНОСТЬ: 21.489 [кВт] СУММА: 107.445 [руб]
[493] ДАТА: 2016-07-09 МОЩНОСТЬ: 21.489 [кВт] СУММА: 107.445 [руб]
[494] ДАТА: 2016-07-08 МОЩНОСТЬ: 21.489 [кВт] СУММА: 107.445 [руб]
[495] ДАТА: 2016-07-05 МОЩНОСТЬ: 21.489 [кВт] СУММА: 107.445 [руб]
[496] ДАТА: 2016-07-04 МОЩНОСТЬ: 21.489 [кВт] СУММА: 107.445 [руб]
[497] ДАТА: 2016-07-03 МОЩНОСТЬ: 21.489 [кВт] СУММА: 107.445 [руб]
[498] ДАТА: 2016-07-02 МОЩНОСТЬ: 21.489 [кВт] СУММА: 107.445 [руб]
[499] ДАТА: 2016-07-01 МОЩНОСТЬ: 21.489 [кВт] СУММА: 107.445 [руб]
[500] ДАТА: 2016-06-30 МОЩНОСТЬ: 21.489 [кВт] СУММА: 107.445 [руб]